Weather at Palm Beach International Airport

Public forecast

Using degrees Fahrenheit for public forecast. Weather courtesy of forecast.io.

Current aviation weather report (METAR) for Palm Beach International Airport

2024/05/26 19:53 (retrieved 52 minutes ago)

KPBI 261953Z 11011KT 10SM SCT045 34/24 A2992 RMK AO2 SLP132 T03390239

Aviation forecast (TAF) for Palm Beach International Airport

2024/05/26 21:39 Ammendment (retrieved 0 seconds ago)

TAF AMD KPBI 262030Z 2621/2718 13011KT P6SM VCSH SCT030 SCT050 FM270000 16007KT P6SM FEW035 SCT250 FM270300 VRB05KT P6SM FEW035 FEW250 FM271600 15010KT P6SM FEW030 SCT050